sensor_id;sensor_type;location;lat;lon;timestamp;P1;durP1;ratioP1;P2;durP2;ratioP2
58472;SDS011;44775;51.564;5.460;2023-06-14T00:01:58;14.50;;;5.93;;
58472;SDS011;44775;51.564;5.460;2023-06-14T00:04:23;9.50;;;6.85;;
58472;SDS011;44775;51.564;5.460;2023-06-14T00:06:50;7.63;;;6.00;;
58472;SDS011;44775;51.564;5.460;2023-06-14T00:09:15;8.90;;;7.25;;
58472;SDS011;44775;51.564;5.460;2023-06-14T00:11:42;9.07;;;6.60;;
58472;SDS011;44775;51.564;5.460;2023-06-14T00:14:08;7.00;;;5.90;;
58472;SDS011;44775;51.564;5.460;2023-06-14T00:16:34;6.65;;;5.90;;
58472;SDS011;44775;51.564;5.460;2023-06-14T00:19:00;10.38;;;7.00;;
58472;SDS011;44775;51.564;5.460;2023-06-14T00:21:29;9.50;;;6.20;;
58472;SDS011;44775;51.564;5.460;2023-06-14T00:23:55;9.48;;;5.93;;
58472;SDS011;44775;51.564;5.460;2023-06-14T00:26:22;10.68;;;6.57;;
58472;SDS011;44775;51.564;5.460;2023-06-14T00:28:47;7.63;;;6.20;;
58472;SDS011;44775;51.564;5.460;2023-06-14T00:31:12;10.52;;;6.18;;
58472;SDS011;44775;51.564;5.460;2023-06-14T00:33:37;11.52;;;5.72;;
58472;SDS011;44775;51.564;5.460;2023-06-14T00:36:03;10.73;;;6.20;;
58472;SDS011;44775;51.564;5.460;2023-06-14T00:38:28;7.05;;;5.60;;
58472;SDS011;44775;51.564;5.460;2023-06-14T00:40:53;5.78;;;5.15;;
58472;SDS011;44775;51.564;5.460;2023-06-14T00:43:19;8.93;;;6.05;;
58472;SDS011;44775;51.564;5.460;2023-06-14T00:45:44;6.63;;;5.40;;
58472;SDS011;44775;51.564;5.460;2023-06-14T00:48:09;6.40;;;5.38;;
58472;SDS011;44775;51.564;5.460;2023-06-14T00:50:36;7.35;;;5.65;;
58472;SDS011;44775;51.564;5.460;2023-06-14T00:53:03;8.40;;;5.32;;
58472;SDS011;44775;51.564;5.460;2023-06-14T00:55:29;6.22;;;5.20;;
58472;SDS011;44775;51.564;5.460;2023-06-14T00:57:55;10.10;;;5.80;;
58472;SDS011;44775;51.564;5.460;2023-06-14T01:00:21;8.77;;;5.15;;
58472;SDS011;44775;51.564;5.460;2023-06-14T01:02:47;7.20;;;5.18;;
58472;SDS011;44775;51.564;5.460;2023-06-14T01:05:12;7.10;;;5.82;;
58472;SDS011;44775;51.564;5.460;2023-06-14T01:07:59;9.85;;;5.55;;
58472;SDS011;44775;51.564;5.460;2023-06-14T01:11:01;8.27;;;5.45;;
58472;SDS011;44775;51.564;5.460;2023-06-14T01:13:33;10.55;;;4.80;;
58472;SDS011;44775;51.564;5.460;2023-06-14T01:16:00;6.88;;;5.03;;
58472;SDS011;44775;51.564;5.460;2023-06-14T01:18:27;9.35;;;5.15;;
58472;SDS011;44775;51.564;5.460;2023-06-14T01:20:54;7.60;;;4.90;;
58472;SDS011;44775;51.564;5.460;2023-06-14T01:23:21;7.32;;;5.43;;
58472;SDS011;44775;51.564;5.460;2023-06-14T01:25:47;9.70;;;4.82;;
58472;SDS011;44775;51.564;5.460;2023-06-14T01:28:18;9.43;;;5.03;;
58472;SDS011;44775;51.564;5.460;2023-06-14T01:30:46;8.25;;;5.05;;
58472;SDS011;44775;51.564;5.460;2023-06-14T01:33:17;7.45;;;5.00;;
58472;SDS011;44775;51.564;5.460;2023-06-14T01:38:12;7.13;;;4.70;;
58472;SDS011;44775;51.564;5.460;2023-06-14T01:40:38;9.13;;;4.78;;
58472;SDS011;44775;51.564;5.460;2023-06-14T01:43:04;8.57;;;5.13;;
58472;SDS011;44775;51.564;5.460;2023-06-14T01:45:31;8.68;;;5.00;;
58472;SDS011;44775;51.564;5.460;2023-06-14T01:47:58;8.70;;;4.90;;
58472;SDS011;44775;51.564;5.460;2023-06-14T01:50:24;7.97;;;4.78;;
58472;SDS011;44775;51.564;5.460;2023-06-14T01:52:53;9.93;;;4.70;;
58472;SDS011;44775;51.564;5.460;2023-06-14T01:55:18;9.80;;;4.88;;
58472;SDS011;44775;51.564;5.460;2023-06-14T01:57:46;9.48;;;4.68;;
58472;SDS011;44775;51.564;5.460;2023-06-14T02:00:12;8.02;;;4.97;;
58472;SDS011;44775;51.564;5.460;2023-06-14T02:02:39;6.75;;;4.45;;
58472;SDS011;44775;51.564;5.460;2023-06-14T02:05:05;7.93;;;5.10;;
58472;SDS011;44775;51.564;5.460;2023-06-14T02:07:30;10.75;;;4.90;;
58472;SDS011;44775;51.564;5.460;2023-06-14T02:09:56;7.45;;;5.15;;
58472;SDS011;44775;51.564;5.460;2023-06-14T02:12:21;10.80;;;5.40;;
58472;SDS011;44775;51.564;5.460;2023-06-14T02:14:46;6.68;;;4.68;;
58472;SDS011;44775;51.564;5.460;2023-06-14T02:17:11;8.25;;;4.88;;
58472;SDS011;44775;51.564;5.460;2023-06-14T02:19:37;6.72;;;5.03;;
58472;SDS011;44775;51.564;5.460;2023-06-14T02:22:02;9.82;;;5.00;;
58472;SDS011;44775;51.564;5.460;2023-06-14T02:24:27;8.57;;;4.72;;
58472;SDS011;44775;51.564;5.460;2023-06-14T02:26:53;9.00;;;5.00;;
58472;SDS011;44775;51.564;5.460;2023-06-14T02:29:18;9.63;;;4.70;;
58472;SDS011;44775;51.564;5.460;2023-06-14T02:31:43;7.50;;;4.97;;
58472;SDS011;44775;51.564;5.460;2023-06-14T02:34:09;8.38;;;5.15;;
58472;SDS011;44775;51.564;5.460;2023-06-14T02:36:34;7.45;;;4.97;;
58472;SDS011;44775;51.564;5.460;2023-06-14T02:39:00;7.28;;;4.60;;
58472;SDS011;44775;51.564;5.460;2023-06-14T02:41:25;8.45;;;5.10;;
58472;SDS011;44775;51.564;5.460;2023-06-14T02:43:51;6.43;;;4.65;;
58472;SDS011;44775;51.564;5.460;2023-06-14T02:46:17;11.80;;;5.03;;
58472;SDS011;44775;51.564;5.460;2023-06-14T02:48:43;9.10;;;5.28;;
58472;SDS011;44775;51.564;5.460;2023-06-14T02:51:08;12.43;;;5.20;;
58472;SDS011;44775;51.564;5.460;2023-06-14T02:53:34;8.15;;;5.03;;
58472;SDS011;44775;51.564;5.460;2023-06-14T02:56:00;8.93;;;4.90;;
58472;SDS011;44775;51.564;5.460;2023-06-14T02:58:26;7.10;;;4.95;;
58472;SDS011;44775;51.564;5.460;2023-06-14T03:00:51;8.90;;;4.93;;
58472;SDS011;44775;51.564;5.460;2023-06-14T03:03:20;8.82;;;5.30;;
58472;SDS011;44775;51.564;5.460;2023-06-14T03:05:47;7.70;;;4.95;;
58472;SDS011;44775;51.564;5.460;2023-06-14T03:08:14;9.07;;;5.30;;
58472;SDS011;44775;51.564;5.460;2023-06-14T03:10:45;6.00;;;4.90;;
58472;SDS011;44775;51.564;5.460;2023-06-14T03:13:11;11.85;;;5.07;;
58472;SDS011;44775;51.564;5.460;2023-06-14T03:15:37;7.90;;;4.90;;
58472;SDS011;44775;51.564;5.460;2023-06-14T03:18:03;5.70;;;4.68;;
58472;SDS011;44775;51.564;5.460;2023-06-14T03:20:28;6.47;;;5.18;;
58472;SDS011;44775;51.564;5.460;2023-06-14T03:22:57;10.85;;;4.82;;
58472;SDS011;44775;51.564;5.460;2023-06-14T03:25:23;7.53;;;4.88;;
58472;SDS011;44775;51.564;5.460;2023-06-14T03:27:49;10.05;;;5.00;;
58472;SDS011;44775;51.564;5.460;2023-06-14T03:30:14;11.45;;;5.00;;
58472;SDS011;44775;51.564;5.460;2023-06-14T03:32:39;7.72;;;5.18;;
58472;SDS011;44775;51.564;5.460;2023-06-14T03:35:05;7.65;;;5.15;;
58472;SDS011;44775;51.564;5.460;2023-06-14T03:37:31;8.20;;;5.07;;
58472;SDS011;44775;51.564;5.460;2023-06-14T03:39:56;13.65;;;5.53;;
58472;SDS011;44775;51.564;5.460;2023-06-14T03:42:21;7.82;;;5.10;;
58472;SDS011;44775;51.564;5.460;2023-06-14T03:44:47;6.78;;;4.80;;
58472;SDS011;44775;51.564;5.460;2023-06-14T03:47:12;8.02;;;5.35;;
58472;SDS011;44775;51.564;5.460;2023-06-14T03:49:37;10.32;;;5.38;;
58472;SDS011;44775;51.564;5.460;2023-06-14T03:52:03;7.22;;;4.68;;
58472;SDS011;44775;51.564;5.460;2023-06-14T03:54:28;11.95;;;5.18;;
58472;SDS011;44775;51.564;5.460;2023-06-14T03:56:54;7.70;;;5.10;;
58472;SDS011;44775;51.564;5.460;2023-06-14T03:59:19;10.15;;;5.10;;
58472;SDS011;44775;51.564;5.460;2023-06-14T04:01:44;8.32;;;4.90;;
58472;SDS011;44775;51.564;5.460;2023-06-14T04:04:11;7.40;;;5.13;;
58472;SDS011;44775;51.564;5.460;2023-06-14T04:06:37;12.88;;;5.45;;
58472;SDS011;44775;51.564;5.460;2023-06-14T04:09:02;8.32;;;5.10;;
58472;SDS011;44775;51.564;5.460;2023-06-14T04:11:29;8.85;;;5.22;;
58472;SDS011;44775;51.564;5.460;2023-06-14T04:13:55;8.95;;;5.38;;
58472;SDS011;44775;51.564;5.460;2023-06-14T04:16:21;10.25;;;5.30;;
58472;SDS011;44775;51.564;5.460;2023-06-14T04:18:47;7.63;;;5.40;;
58472;SDS011;44775;51.564;5.460;2023-06-14T04:21:13;9.52;;;4.82;;
58472;SDS011;44775;51.564;5.460;2023-06-14T04:23:38;7.90;;;5.15;;
58472;SDS011;44775;51.564;5.460;2023-06-14T04:26:04;8.32;;;5.10;;
58472;SDS011;44775;51.564;5.460;2023-06-14T04:28:29;10.38;;;5.10;;
58472;SDS011;44775;51.564;5.460;2023-06-14T04:30:54;8.95;;;5.10;;
58472;SDS011;44775;51.564;5.460;2023-06-14T04:33:20;7.07;;;5.47;;
58472;SDS011;44775;51.564;5.460;2023-06-14T04:35:45;10.45;;;5.35;;
58472;SDS011;44775;51.564;5.460;2023-06-14T04:38:12;8.48;;;4.50;;
58472;SDS011;44775;51.564;5.460;2023-06-14T04:40:37;9.07;;;5.15;;
58472;SDS011;44775;51.564;5.460;2023-06-14T04:43:07;10.85;;;5.30;;
58472;SDS011;44775;51.564;5.460;2023-06-14T04:45:33;17.13;;;5.50;;
58472;SDS011;44775;51.564;5.460;2023-06-14T04:47:59;8.10;;;4.85;;
58472;SDS011;44775;51.564;5.460;2023-06-14T04:50:24;7.55;;;5.05;;
58472;SDS011;44775;51.564;5.460;2023-06-14T04:52:50;10.75;;;5.38;;
58472;SDS011;44775;51.564;5.460;2023-06-14T04:55:16;9.85;;;5.10;;
58472;SDS011;44775;51.564;5.460;2023-06-14T04:57:42;12.18;;;5.35;;
58472;SDS011;44775;51.564;5.460;2023-06-14T05:00:07;11.75;;;5.43;;
58472;SDS011;44775;51.564;5.460;2023-06-14T05:02:34;14.00;;;5.78;;
58472;SDS011;44775;51.564;5.460;2023-06-14T05:05:00;7.25;;;5.57;;
58472;SDS011;44775;51.564;5.460;2023-06-14T05:07:26;10.20;;;4.47;;
58472;SDS011;44775;51.564;5.460;2023-06-14T05:09:52;8.95;;;5.43;;
58472;SDS011;44775;51.564;5.460;2023-06-14T05:12:17;10.65;;;5.20;;
58472;SDS011;44775;51.564;5.460;2023-06-14T05:14:45;11.15;;;5.18;;
58472;SDS011;44775;51.564;5.460;2023-06-14T05:17:10;10.13;;;5.60;;
58472;SDS011;44775;51.564;5.460;2023-06-14T05:19:36;8.35;;;5.20;;
58472;SDS011;44775;51.564;5.460;2023-06-14T05:22:01;10.05;;;5.70;;
58472;SDS011;44775;51.564;5.460;2023-06-14T05:24:27;11.63;;;5.30;;
58472;SDS011;44775;51.564;5.460;2023-06-14T05:26:55;11.63;;;5.90;;
58472;SDS011;44775;51.564;5.460;2023-06-14T05:29:20;12.60;;;5.22;;
58472;SDS011;44775;51.564;5.460;2023-06-14T05:31:46;11.73;;;5.70;;
58472;SDS011;44775;51.564;5.460;2023-06-14T05:34:11;10.70;;;5.38;;
58472;SDS011;44775;51.564;5.460;2023-06-14T05:36:36;15.15;;;6.15;;
58472;SDS011;44775;51.564;5.460;2023-06-14T05:39:02;26.83;;;6.30;;
58472;SDS011;44775;51.564;5.460;2023-06-14T05:41:28;12.18;;;5.78;;
58472;SDS011;44775;51.564;5.460;2023-06-14T05:43:54;12.55;;;5.85;;
58472;SDS011;44775;51.564;5.460;2023-06-14T05:46:20;10.93;;;4.90;;
58472;SDS011;44775;51.564;5.460;2023-06-14T05:48:49;9.90;;;5.35;;
58472;SDS011;44775;51.564;5.460;2023-06-14T05:51:14;12.68;;;5.05;;
58472;SDS011;44775;51.564;5.460;2023-06-14T05:53:43;10.75;;;5.47;;
58472;SDS011;44775;51.564;5.460;2023-06-14T05:56:09;10.82;;;5.43;;
58472;SDS011;44775;51.564;5.460;2023-06-14T05:58:34;7.72;;;5.13;;
58472;SDS011;44775;51.564;5.460;2023-06-14T06:01:00;9.60;;;4.63;;
58472;SDS011;44775;51.564;5.460;2023-06-14T06:03:26;11.15;;;5.90;;
58472;SDS011;44775;51.564;5.460;2023-06-14T06:05:54;9.32;;;5.00;;
58472;SDS011;44775;51.564;5.460;2023-06-14T06:08:19;11.15;;;5.28;;
58472;SDS011;44775;51.564;5.460;2023-06-14T06:10:45;13.07;;;5.38;;
58472;SDS011;44775;51.564;5.460;2023-06-14T06:13:10;6.55;;;4.50;;
58472;SDS011;44775;51.564;5.460;2023-06-14T06:15:35;12.55;;;5.40;;
58472;SDS011;44775;51.564;5.460;2023-06-14T06:18:02;8.02;;;4.97;;
58472;SDS011;44775;51.564;5.460;2023-06-14T06:20:27;9.80;;;4.43;;
58472;SDS011;44775;51.564;5.460;2023-06-14T06:22:56;7.43;;;4.28;;
58472;SDS011;44775;51.564;5.460;2023-06-14T06:25:23;12.90;;;4.90;;
58472;SDS011;44775;51.564;5.460;2023-06-14T06:27:50;18.77;;;4.90;;
58472;SDS011;44775;51.564;5.460;2023-06-14T06:30:19;8.25;;;3.88;;
58472;SDS011;44775;51.564;5.460;2023-06-14T06:32:45;9.38;;;4.13;;
58472;SDS011;44775;51.564;5.460;2023-06-14T06:35:10;7.75;;;4.15;;
58472;SDS011;44775;51.564;5.460;2023-06-14T06:37:37;13.40;;;4.13;;
58472;SDS011;44775;51.564;5.460;2023-06-14T06:40:03;12.40;;;4.90;;
58472;SDS011;44775;51.564;5.460;2023-06-14T06:42:30;10.63;;;4.50;;
58472;SDS011;44775;51.564;5.460;2023-06-14T06:44:56;7.18;;;4.30;;
58472;SDS011;44775;51.564;5.460;2023-06-14T06:47:21;10.27;;;4.10;;
58472;SDS011;44775;51.564;5.460;2023-06-14T06:49:47;10.10;;;3.95;;
58472;SDS011;44775;51.564;5.460;2023-06-14T06:52:13;7.28;;;3.63;;
58472;SDS011;44775;51.564;5.460;2023-06-14T06:54:38;7.55;;;3.90;;
58472;SDS011;44775;51.564;5.460;2023-06-14T06:57:04;6.72;;;4.50;;
58472;SDS011;44775;51.564;5.460;2023-06-14T06:59:30;10.10;;;4.32;;
58472;SDS011;44775;51.564;5.460;2023-06-14T07:01:56;10.23;;;4.70;;
58472;SDS011;44775;51.564;5.460;2023-06-14T07:04:21;4.78;;;3.58;;
58472;SDS011;44775;51.564;5.460;2023-06-14T07:06:46;4.65;;;3.20;;
58472;SDS011;44775;51.564;5.460;2023-06-14T07:09:12;4.65;;;2.97;;
58472;SDS011;44775;51.564;5.460;2023-06-14T07:11:39;5.22;;;2.90;;
58472;SDS011;44775;51.564;5.460;2023-06-14T07:14:05;8.77;;;4.07;;
58472;SDS011;44775;51.564;5.460;2023-06-14T07:16:30;5.65;;;2.88;;
58472;SDS011;44775;51.564;5.460;2023-06-14T07:18:56;4.70;;;2.63;;
58472;SDS011;44775;51.564;5.460;2023-06-14T07:21:21;13.68;;;3.80;;
58472;SDS011;44775;51.564;5.460;2023-06-14T07:23:46;6.72;;;2.72;;
58472;SDS011;44775;51.564;5.460;2023-06-14T07:26:12;2.47;;;2.28;;
58472;SDS011;44775;51.564;5.460;2023-06-14T07:28:37;3.40;;;2.75;;
58472;SDS011;44775;51.564;5.460;2023-06-14T07:31:02;6.00;;;2.55;;
58472;SDS011;44775;51.564;5.460;2023-06-14T07:33:28;9.15;;;4.05;;
58472;SDS011;44775;51.564;5.460;2023-06-14T07:35:53;2.78;;;2.15;;
58472;SDS011;44775;51.564;5.460;2023-06-14T07:38:19;7.93;;;2.53;;
58472;SDS011;44775;51.564;5.460;2023-06-14T07:40:44;5.38;;;2.10;;
58472;SDS011;44775;51.564;5.460;2023-06-14T07:43:09;5.15;;;3.53;;
58472;SDS011;44775;51.564;5.460;2023-06-14T07:45:35;6.22;;;2.67;;
58472;SDS011;44775;51.564;5.460;2023-06-14T07:48:00;5.05;;;2.35;;
58472;SDS011;44775;51.564;5.460;2023-06-14T07:50:25;2.33;;;2.03;;
58472;SDS011;44775;51.564;5.460;2023-06-14T07:52:51;4.47;;;2.35;;
58472;SDS011;44775;51.564;5.460;2023-06-14T07:55:16;3.45;;;2.15;;
58472;SDS011;44775;51.564;5.460;2023-06-14T07:57:41;4.30;;;2.10;;
58472;SDS011;44775;51.564;5.460;2023-06-14T08:00:08;2.20;;;1.63;;
58472;SDS011;44775;51.564;5.460;2023-06-14T08:02:35;3.95;;;1.92;;
58472;SDS011;44775;51.564;5.460;2023-06-14T08:05:00;8.82;;;3.20;;
58472;SDS011;44775;51.564;5.460;2023-06-14T08:07:26;2.33;;;1.63;;
58472;SDS011;44775;51.564;5.460;2023-06-14T08:09:51;2.05;;;1.67;;
58472;SDS011;44775;51.564;5.460;2023-06-14T08:12:17;5.18;;;2.20;;
58472;SDS011;44775;51.564;5.460;2023-06-14T08:14:42;3.03;;;2.00;;
58472;SDS011;44775;51.564;5.460;2023-06-14T08:17:07;3.90;;;1.92;;
58472;SDS011;44775;51.564;5.460;2023-06-14T08:19:33;3.92;;;2.05;;
58472;SDS011;44775;51.564;5.460;2023-06-14T08:21:58;3.05;;;1.80;;
58472;SDS011;44775;51.564;5.460;2023-06-14T08:24:24;12.23;;;2.67;;
58472;SDS011;44775;51.564;5.460;2023-06-14T08:26:52;6.88;;;2.63;;
58472;SDS011;44775;51.564;5.460;2023-06-14T08:29:21;4.05;;;2.30;;
58472;SDS011;44775;51.564;5.460;2023-06-14T08:31:47;3.60;;;2.20;;
58472;SDS011;44775;51.564;5.460;2023-06-14T08:34:12;3.63;;;1.80;;
58472;SDS011;44775;51.564;5.460;2023-06-14T08:36:38;6.72;;;2.60;;
58472;SDS011;44775;51.564;5.460;2023-06-14T08:39:03;11.83;;;3.00;;
58472;SDS011;44775;51.564;5.460;2023-06-14T08:41:28;5.53;;;2.03;;
58472;SDS011;44775;51.564;5.460;2023-06-14T08:43:54;5.07;;;2.10;;
58472;SDS011;44775;51.564;5.460;2023-06-14T08:46:20;5.28;;;1.80;;
58472;SDS011;44775;51.564;5.460;2023-06-14T08:48:47;6.43;;;2.20;;
58472;SDS011;44775;51.564;5.460;2023-06-14T08:51:14;7.45;;;2.58;;
58472;SDS011;44775;51.564;5.460;2023-06-14T08:53:43;3.33;;;1.70;;
58472;SDS011;44775;51.564;5.460;2023-06-14T08:56:09;6.93;;;2.20;;
58472;SDS011;44775;51.564;5.460;2023-06-14T08:58:47;7.85;;;2.25;;
58472;SDS011;44775;51.564;5.460;2023-06-14T09:01:14;3.22;;;1.70;;
58472;SDS011;44775;51.564;5.460;2023-06-14T09:03:41;4.63;;;1.60;;
58472;SDS011;44775;51.564;5.460;2023-06-14T09:06:07;4.45;;;1.80;;
58472;SDS011;44775;51.564;5.460;2023-06-14T09:08:38;3.67;;;1.70;;
58472;SDS011;44775;51.564;5.460;2023-06-14T09:11:05;4.93;;;1.90;;
58472;SDS011;44775;51.564;5.460;2023-06-14T09:13:31;2.63;;;1.75;;
58472;SDS011;44775;51.564;5.460;2023-06-14T09:15:57;4.88;;;1.60;;
58472;SDS011;44775;51.564;5.460;2023-06-14T09:18:22;3.42;;;1.50;;
58472;SDS011;44775;51.564;5.460;2023-06-14T09:20:59;3.90;;;1.40;;
58472;SDS011;44775;51.564;5.460;2023-06-14T09:23:25;2.85;;;1.40;;
58472;SDS011;44775;51.564;5.460;2023-06-14T09:25:50;3.95;;;1.25;;
58472;SDS011;44775;51.564;5.460;2023-06-14T09:28:15;5.30;;;1.50;;
58472;SDS011;44775;51.564;5.460;2023-06-14T09:30:41;2.13;;;1.20;;
58472;SDS011;44775;51.564;5.460;2023-06-14T09:33:06;4.25;;;1.13;;
58472;SDS011;44775;51.564;5.460;2023-06-14T09:35:32;4.10;;;1.30;;
58472;SDS011;44775;51.564;5.460;2023-06-14T09:37:57;2.45;;;1.20;;
58472;SDS011;44775;51.564;5.460;2023-06-14T09:40:23;4.03;;;1.17;;
58472;SDS011;44775;51.564;5.460;2023-06-14T09:42:49;3.08;;;1.33;;
58472;SDS011;44775;51.564;5.460;2023-06-14T09:45:15;7.68;;;1.35;;
58472;SDS011;44775;51.564;5.460;2023-06-14T09:47:44;2.90;;;1.30;;
58472;SDS011;44775;51.564;5.460;2023-06-14T09:50:11;2.72;;;1.23;;
58472;SDS011;44775;51.564;5.460;2023-06-14T09:52:36;4.05;;;1.10;;
58472;SDS011;44775;51.564;5.460;2023-06-14T09:55:02;5.82;;;1.40;;
58472;SDS011;44775;51.564;5.460;2023-06-14T09:57:36;4.47;;;1.20;;
58472;SDS011;44775;51.564;5.460;2023-06-14T10:00:05;10.80;;;1.58;;
58472;SDS011;44775;51.564;5.460;2023-06-14T10:02:36;3.20;;;1.15;;
58472;SDS011;44775;51.564;5.460;2023-06-14T10:05:03;2.47;;;0.93;;
58472;SDS011;44775;51.564;5.460;2023-06-14T10:07:42;4.10;;;2.25;;
58472;SDS011;44775;51.564;5.460;2023-06-14T10:10:18;4.65;;;1.50;;
58472;SDS011;44775;51.564;5.460;2023-06-14T10:12:44;2.45;;;1.30;;
58472;SDS011;44775;51.564;5.460;2023-06-14T10:15:10;3.60;;;1.10;;
58472;SDS011;44775;51.564;5.460;2023-06-14T10:17:52;8.68;;;1.90;;
58472;SDS011;44775;51.564;5.460;2023-06-14T10:23:03;4.97;;;1.30;;
58472;SDS011;44775;51.564;5.460;2023-06-14T10:25:35;5.43;;;1.73;;
58472;SDS011;44775;51.564;5.460;2023-06-14T10:28:05;4.43;;;1.70;;
58472;SDS011;44775;51.564;5.460;2023-06-14T10:31:00;4.38;;;1.20;;
58472;SDS011;44775;51.564;5.460;2023-06-14T10:33:49;3.15;;;1.50;;
58472;SDS011;44775;51.564;5.460;2023-06-14T10:36:30;3.30;;;1.25;;
58472;SDS011;44775;51.564;5.460;2023-06-14T10:39:04;3.13;;;1.55;;
58472;SDS011;44775;51.564;5.460;2023-06-14T10:41:31;3.92;;;1.13;;
58472;SDS011;44775;51.564;5.460;2023-06-14T10:46:37;3.08;;;1.52;;
58472;SDS011;44775;51.564;5.460;2023-06-14T10:49:03;1.88;;;1.10;;
58472;SDS011;44775;51.564;5.460;2023-06-14T10:51:29;3.83;;;1.40;;
58472;SDS011;44775;51.564;5.460;2023-06-14T10:53:55;3.83;;;1.30;;
58472;SDS011;44775;51.564;5.460;2023-06-14T10:56:27;3.47;;;1.60;;
58472;SDS011;44775;51.564;5.460;2023-06-14T10:58:53;3.05;;;1.42;;
58472;SDS011;44775;51.564;5.460;2023-06-14T11:01:23;3.15;;;1.45;;
58472;SDS011;44775;51.564;5.460;2023-06-14T11:04:06;1.77;;;1.10;;
58472;SDS011;44775;51.564;5.460;2023-06-14T11:06:44;6.20;;;1.40;;
58472;SDS011;44775;51.564;5.460;2023-06-14T11:11:59;1.52;;;1.08;;
58472;SDS011;44775;51.564;5.460;2023-06-14T11:14:29;3.63;;;1.17;;
58472;SDS011;44775;51.564;5.460;2023-06-14T11:16:55;8.25;;;1.27;;
58472;SDS011;44775;51.564;5.460;2023-06-14T11:19:21;4.35;;;1.25;;
58472;SDS011;44775;51.564;5.460;2023-06-14T11:21:47;4.93;;;1.40;;
58472;SDS011;44775;51.564;5.460;2023-06-14T11:24:13;3.28;;;1.00;;
58472;SDS011;44775;51.564;5.460;2023-06-14T11:26:39;2.10;;;1.10;;
58472;SDS011;44775;51.564;5.460;2023-06-14T11:29:05;3.08;;;1.33;;
58472;SDS011;44775;51.564;5.460;2023-06-14T11:31:30;5.75;;;1.38;;
58472;SDS011;44775;51.564;5.460;2023-06-14T11:33:57;3.13;;;0.90;;
58472;SDS011;44775;51.564;5.460;2023-06-14T11:36:23;3.70;;;1.10;;
58472;SDS011;44775;51.564;5.460;2023-06-14T11:38:57;4.00;;;1.17;;
58472;SDS011;44775;51.564;5.460;2023-06-14T11:41:31;5.70;;;1.30;;
58472;SDS011;44775;51.564;5.460;2023-06-14T11:44:17;2.65;;;1.30;;
58472;SDS011;44775;51.564;5.460;2023-06-14T11:46:42;3.75;;;1.35;;
58472;SDS011;44775;51.564;5.460;2023-06-14T11:49:07;4.30;;;1.30;;
58472;SDS011;44775;51.564;5.460;2023-06-14T11:51:34;4.90;;;1.60;;
58472;SDS011;44775;51.564;5.460;2023-06-14T11:54:01;3.70;;;1.30;;
58472;SDS011;44775;51.564;5.460;2023-06-14T11:56:27;4.88;;;1.30;;
58472;SDS011;44775;51.564;5.460;2023-06-14T11:58:53;6.82;;;1.40;;
58472;SDS011;44775;51.564;5.460;2023-06-14T12:01:21;3.67;;;1.50;;
58472;SDS011;44775;51.564;5.460;2023-06-14T12:03:47;4.45;;;1.40;;
58472;SDS011;44775;51.564;5.460;2023-06-14T12:06:16;5.07;;;1.35;;
58472;SDS011;44775;51.564;5.460;2023-06-14T12:08:50;2.55;;;1.30;;
58472;SDS011;44775;51.564;5.460;2023-06-14T12:11:15;5.22;;;1.20;;
58472;SDS011;44775;51.564;5.460;2023-06-14T12:13:41;7.43;;;1.23;;
58472;SDS011;44775;51.564;5.460;2023-06-14T12:16:08;3.35;;;1.13;;
58472;SDS011;44775;51.564;5.460;2023-06-14T12:18:34;4.07;;;1.40;;
58472;SDS011;44775;51.564;5.460;2023-06-14T12:21:02;5.20;;;1.43;;
58472;SDS011;44775;51.564;5.460;2023-06-14T12:26:05;3.55;;;1.00;;
58472;SDS011;44775;51.564;5.460;2023-06-14T12:28:31;5.72;;;1.10;;
58472;SDS011;44775;51.564;5.460;2023-06-14T12:30:56;3.33;;;1.20;;
58472;SDS011;44775;51.564;5.460;2023-06-14T12:33:23;5.00;;;0.97;;
58472;SDS011;44775;51.564;5.460;2023-06-14T12:35:49;4.32;;;1.10;;
58472;SDS011;44775;51.564;5.460;2023-06-14T12:38:15;2.83;;;1.00;;
58472;SDS011;44775;51.564;5.460;2023-06-14T12:40:41;3.50;;;1.02;;
58472;SDS011;44775;51.564;5.460;2023-06-14T12:43:07;4.22;;;1.05;;
58472;SDS011;44775;51.564;5.460;2023-06-14T12:45:32;4.90;;;1.08;;
58472;SDS011;44775;51.564;5.460;2023-06-14T12:47:58;7.95;;;1.50;;
58472;SDS011;44775;51.564;5.460;2023-06-14T12:50:23;3.30;;;1.33;;
58472;SDS011;44775;51.564;5.460;2023-06-14T12:52:48;4.07;;;1.00;;
58472;SDS011;44775;51.564;5.460;2023-06-14T12:55:13;2.33;;;0.90;;
58472;SDS011;44775;51.564;5.460;2023-06-14T12:57:39;2.13;;;0.98;;
58472;SDS011;44775;51.564;5.460;2023-06-14T13:00:05;7.22;;;1.60;;
58472;SDS011;44775;51.564;5.460;2023-06-14T13:02:32;3.42;;;1.40;;
58472;SDS011;44775;51.564;5.460;2023-06-14T13:04:58;5.20;;;1.55;;
58472;SDS011;44775;51.564;5.460;2023-06-14T13:07:24;2.55;;;1.23;;
58472;SDS011;44775;51.564;5.460;2023-06-14T13:09:49;3.47;;;0.90;;
58472;SDS011;44775;51.564;5.460;2023-06-14T13:12:14;6.07;;;1.15;;
58472;SDS011;44775;51.564;5.460;2023-06-14T13:14:40;4.63;;;1.02;;
58472;SDS011;44775;51.564;5.460;2023-06-14T13:17:07;3.63;;;1.38;;
58472;SDS011;44775;51.564;5.460;2023-06-14T13:19:33;4.22;;;1.40;;
58472;SDS011;44775;51.564;5.460;2023-06-14T13:21:58;6.13;;;1.43;;
58472;SDS011;44775;51.564;5.460;2023-06-14T13:24:24;2.90;;;1.50;;
58472;SDS011;44775;51.564;5.460;2023-06-14T13:26:49;4.20;;;1.43;;
58472;SDS011;44775;51.564;5.460;2023-06-14T13:29:14;3.28;;;1.30;;
58472;SDS011;44775;51.564;5.460;2023-06-14T13:31:39;8.07;;;1.50;;
58472;SDS011;44775;51.564;5.460;2023-06-14T13:34:05;3.72;;;1.35;;
58472;SDS011;44775;51.564;5.460;2023-06-14T13:36:31;9.40;;;1.40;;
58472;SDS011;44775;51.564;5.460;2023-06-14T13:38:56;4.88;;;1.48;;
58472;SDS011;44775;51.564;5.460;2023-06-14T13:41:23;5.28;;;1.30;;
58472;SDS011;44775;51.564;5.460;2023-06-14T13:43:56;6.57;;;1.50;;
58472;SDS011;44775;51.564;5.460;2023-06-14T13:46:21;1.80;;;1.00;;
58472;SDS011;44775;51.564;5.460;2023-06-14T13:48:46;1.93;;;1.10;;
58472;SDS011;44775;51.564;5.460;2023-06-14T13:51:12;2.85;;;0.90;;
58472;SDS011;44775;51.564;5.460;2023-06-14T13:53:38;4.18;;;1.10;;
58472;SDS011;44775;51.564;5.460;2023-06-14T13:56:03;4.75;;;1.10;;
58472;SDS011;44775;51.564;5.460;2023-06-14T13:58:28;5.35;;;1.20;;
58472;SDS011;44775;51.564;5.460;2023-06-14T14:00:54;2.58;;;0.95;;
58472;SDS011;44775;51.564;5.460;2023-06-14T14:03:19;4.95;;;1.20;;
58472;SDS011;44775;51.564;5.460;2023-06-14T14:05:45;2.63;;;1.20;;
58472;SDS011;44775;51.564;5.460;2023-06-14T14:08:10;3.67;;;1.42;;
58472;SDS011;44775;51.564;5.460;2023-06-14T14:10:35;6.53;;;1.40;;
58472;SDS011;44775;51.564;5.460;2023-06-14T14:13:01;5.23;;;1.10;;
58472;SDS011;44775;51.564;5.460;2023-06-14T14:15:26;4.25;;;1.05;;
58472;SDS011;44775;51.564;5.460;2023-06-14T14:17:52;6.28;;;1.65;;
58472;SDS011;44775;51.564;5.460;2023-06-14T14:20:19;1.97;;;0.90;;
58472;SDS011;44775;51.564;5.460;2023-06-14T14:22:44;8.85;;;1.20;;
58472;SDS011;44775;51.564;5.460;2023-06-14T14:25:10;5.45;;;1.10;;
58472;SDS011;44775;51.564;5.460;2023-06-14T14:27:35;1.77;;;0.85;;
58472;SDS011;44775;51.564;5.460;2023-06-14T14:30:01;8.05;;;1.10;;
58472;SDS011;44775;51.564;5.460;2023-06-14T14:32:28;2.90;;;0.90;;
58472;SDS011;44775;51.564;5.460;2023-06-14T14:34:53;1.87;;;0.90;;
58472;SDS011;44775;51.564;5.460;2023-06-14T14:37:18;3.83;;;0.80;;
58472;SDS011;44775;51.564;5.460;2023-06-14T14:39:44;3.27;;;0.90;;
58472;SDS011;44775;51.564;5.460;2023-06-14T14:42:09;2.47;;;0.95;;
58472;SDS011;44775;51.564;5.460;2023-06-14T14:44:37;2.55;;;0.85;;
58472;SDS011;44775;51.564;5.460;2023-06-14T14:47:02;2.00;;;0.98;;
58472;SDS011;44775;51.564;5.460;2023-06-14T14:49:28;2.78;;;0.63;;
58472;SDS011;44775;51.564;5.460;2023-06-14T14:51:53;6.40;;;1.00;;
58472;SDS011;44775;51.564;5.460;2023-06-14T14:54:18;2.92;;;0.82;;
58472;SDS011;44775;51.564;5.460;2023-06-14T14:56:44;2.33;;;0.98;;